createdAt,value
2018-12-15T00:00:03.837Z,99.90
2018-12-15T00:02:36.705Z,99.90
2018-12-15T00:05:10.070Z,99.90
2018-12-15T00:07:43.107Z,99.90
2018-12-15T00:10:16.233Z,99.90
2018-12-15T00:12:53.426Z,99.90
2018-12-15T00:15:26.653Z,99.90
2018-12-15T00:18:00.037Z,99.90
2018-12-15T00:20:33.282Z,99.90
2018-12-15T00:23:09.762Z,99.90
2018-12-15T00:25:43.013Z,99.90
2018-12-15T00:28:16.084Z,99.90
2018-12-15T00:30:49.441Z,99.90
2018-12-15T00:33:22.919Z,99.90
2018-12-15T00:35:56.086Z,99.90
2018-12-15T00:38:29.215Z,99.90
2018-12-15T00:41:06.372Z,99.90
2018-12-15T00:43:39.611Z,99.90
2018-12-15T00:46:12.775Z,99.90
2018-12-15T00:48:49.275Z,99.90
2018-12-15T00:51:22.587Z,99.90
2018-12-15T00:53:55.707Z,99.90
2018-12-15T00:56:28.729Z,99.90
2018-12-15T00:59:01.189Z,99.90
2018-12-15T01:01:34.139Z,99.90
2018-12-15T01:04:07.693Z,99.90
2018-12-15T01:06:44.505Z,99.90
2018-12-15T01:09:17.715Z,99.90
2018-12-15T01:11:51.058Z,99.90
2018-12-15T01:14:24.033Z,99.90
2018-12-15T01:16:57.199Z,99.90
2018-12-15T01:19:30.538Z,99.90
2018-12-15T01:22:03.568Z,99.90
2018-12-15T01:24:36.746Z,99.90
2018-12-15T01:27:09.728Z,99.90
2018-12-15T01:29:42.947Z,99.90
2018-12-15T01:32:19.454Z,99.90
2018-12-15T01:34:52.597Z,99.90
2018-12-15T01:37:25.655Z,99.90
2018-12-15T01:40:02.730Z,99.90
2018-12-15T01:42:40.058Z,99.90
2018-12-15T01:45:13.109Z,99.90
2018-12-15T01:47:45.786Z,99.90
2018-12-15T01:50:22.289Z,99.90
2018-12-15T01:52:55.551Z,99.90
2018-12-15T01:55:32.706Z,99.90
2018-12-15T01:58:05.073Z,99.90
2018-12-15T02:00:38.078Z,99.90
2018-12-15T02:03:11.374Z,99.90
2018-12-15T02:05:44.239Z,99.90
2018-12-15T02:08:16.518Z,99.90
2018-12-15T02:10:49.502Z,99.90
2018-12-15T02:13:25.866Z,99.90
2018-12-15T02:15:58.085Z,99.90
2018-12-15T02:18:34.486Z,99.90
2018-12-15T02:21:07.578Z,99.90
2018-12-15T02:23:40.666Z,99.90
2018-12-15T02:26:16.903Z,99.90
2018-12-15T02:28:49.302Z,99.90
2018-12-15T02:31:21.488Z,99.90
2018-12-15T02:33:54.606Z,99.90
2018-12-15T02:36:27.039Z,99.90
2018-12-15T02:39:01.178Z,99.90
2018-12-15T02:41:34.157Z,99.90
2018-12-15T02:44:11.222Z,99.90
2018-12-15T02:46:44.182Z,99.90
2018-12-15T02:49:16.744Z,99.90
2018-12-15T02:51:49.668Z,99.90
2018-12-15T02:54:22.411Z,99.90
2018-12-15T02:56:58.688Z,99.90
2018-12-15T02:59:31.765Z,99.90
2018-12-15T03:02:04.969Z,99.90
2018-12-15T03:04:37.308Z,99.90
2018-12-15T03:07:09.605Z,99.90
2018-12-15T03:09:46.681Z,99.90
2018-12-15T03:12:23.116Z,99.90
2018-12-15T03:14:59.526Z,99.90
2018-12-15T03:17:32.443Z,99.90
2018-12-15T03:20:08.666Z,99.90
2018-12-15T03:22:44.962Z,99.90
2018-12-15T03:25:17.206Z,99.90
2018-12-15T03:27:49.518Z,99.90
2018-12-15T03:30:22.466Z,99.90
2018-12-15T03:32:54.706Z,99.90
2018-12-15T03:35:27.851Z,99.90
2018-12-15T03:38:00.866Z,99.90
2018-12-15T03:40:33.921Z,99.90
2018-12-15T03:43:06.974Z,99.90
2018-12-15T03:45:39.174Z,99.90
2018-12-15T03:48:11.470Z,99.90
2018-12-15T03:50:44.415Z,99.90
2018-12-15T03:53:17.418Z,99.90
2018-12-15T03:55:50.434Z,99.90
2018-12-15T03:58:27.615Z,99.90
2018-12-15T04:01:03.840Z,99.90
2018-12-15T04:03:36.954Z,99.90
2018-12-15T04:06:10.311Z,99.90
2018-12-15T04:08:43.658Z,99.90
2018-12-15T04:11:16.603Z,99.90
2018-12-15T04:13:49.663Z,99.90
2018-12-15T04:16:22.976Z,99.90
2018-12-15T04:18:57.200Z,99.90
2018-12-15T04:21:30.490Z,99.90
2018-12-15T04:24:06.862Z,99.90
2018-12-15T04:26:40.084Z,99.90
2018-12-15T04:29:13.659Z,99.90
2018-12-15T04:31:46.529Z,99.90
2018-12-15T04:34:19.844Z,99.90
2018-12-15T04:36:53.241Z,99.90
2018-12-15T04:39:26.473Z,99.90
2018-12-15T04:41:59.538Z,99.90
2018-12-15T04:44:32.540Z,99.90
2018-12-15T04:47:06.300Z,99.90
2018-12-15T04:49:39.224Z,99.90
2018-12-15T04:52:12.381Z,99.90
2018-12-15T04:54:45.479Z,99.90
2018-12-15T04:57:18.682Z,99.90
2018-12-15T04:59:51.742Z,99.90
2018-12-15T05:02:25.082Z,99.90
2018-12-15T05:04:58.383Z,99.90
2018-12-15T05:07:31.929Z,99.90
2018-12-15T05:10:05.511Z,99.90
2018-12-15T05:12:38.178Z,99.90
2018-12-15T05:15:15.442Z,99.90
2018-12-15T05:17:48.711Z,99.90
2018-12-15T05:20:21.901Z,99.90
2018-12-15T05:22:54.694Z,99.90
2018-12-15T05:25:27.819Z,99.90
2018-12-15T05:28:01.057Z,99.90
2018-12-15T05:30:34.247Z,99.90
2018-12-15T05:33:07.493Z,99.90
2018-12-15T05:35:40.154Z,99.90
2018-12-15T05:38:13.459Z,99.90
2018-12-15T05:40:46.662Z,99.90
2018-12-15T05:43:19.882Z,99.90
2018-12-15T05:45:57.176Z,99.90
2018-12-15T05:48:30.419Z,99.90
2018-12-15T05:51:03.866Z,99.90
2018-12-15T05:53:36.895Z,99.90
2018-12-15T05:56:09.740Z,99.90
2018-12-15T05:58:43.114Z,99.90
2018-12-15T06:01:16.187Z,99.90
2018-12-15T06:03:49.343Z,99.90
2018-12-15T06:06:22.521Z,99.90
2018-12-15T06:08:55.638Z,99.90
2018-12-15T06:11:28.763Z,99.90
2018-12-15T06:14:06.058Z,99.90
2018-12-15T06:16:38.858Z,99.90
2018-12-15T06:19:12.082Z,99.90
2018-12-15T06:21:45.270Z,99.90
2018-12-15T06:24:18.311Z,99.90
2018-12-15T06:26:51.381Z,99.90
2018-12-15T06:29:28.450Z,99.90
2018-12-15T06:32:01.706Z,99.90
2018-12-15T06:34:34.656Z,99.90
2018-12-15T06:37:07.845Z,99.90
2018-12-15T06:39:45.111Z,99.90
2018-12-15T06:42:18.206Z,99.90
2018-12-15T06:44:51.278Z,99.90
2018-12-15T06:47:24.815Z,99.90
2018-12-15T06:49:58.016Z,99.90
2018-12-15T06:52:35.499Z,99.90
2018-12-15T06:55:08.513Z,99.90
2018-12-15T06:57:45.580Z,99.90
2018-12-15T07:00:22.613Z,99.90
2018-12-15T07:02:55.868Z,99.90
2018-12-15T07:05:28.850Z,99.90
2018-12-15T07:08:01.977Z,99.90
2018-12-15T07:10:34.208Z,99.90
2018-12-15T07:13:10.641Z,99.90
2018-12-15T07:15:43.471Z,99.90
2018-12-15T07:18:19.791Z,99.90
2018-12-15T07:20:52.713Z,99.90
2018-12-15T07:23:25.809Z,99.90
2018-12-15T07:25:59.408Z,99.90
2018-12-15T07:28:32.856Z,99.90
2018-12-15T07:31:05.979Z,99.90
2018-12-15T07:33:39.094Z,99.90
2018-12-15T07:36:12.049Z,99.90
2018-12-15T07:38:45.392Z,99.90
2018-12-15T07:41:19.122Z,99.90
2018-12-15T07:43:53.135Z,99.90
2018-12-15T07:46:26.720Z,99.90
2018-12-15T07:49:03.759Z,99.90
2018-12-15T07:51:37.226Z,99.90
2018-12-15T07:54:14.497Z,99.90
2018-12-15T07:56:52.804Z,99.90
2018-12-15T07:59:27.025Z,99.90
2018-12-15T08:02:01.444Z,99.90
2018-12-15T08:04:35.476Z,99.90
2018-12-15T08:07:09.864Z,99.90
2018-12-15T08:09:43.944Z,99.90
2018-12-15T08:12:47.685Z,99.90
2018-12-15T08:15:22.225Z,99.90
2018-12-15T08:18:01.356Z,99.90
2018-12-15T08:20:35.400Z,99.90
2018-12-15T08:23:13.109Z,99.90
2018-12-15T08:25:47.650Z,99.90
2018-12-15T08:28:22.242Z,99.90
2018-12-15T08:30:56.612Z,99.90
2018-12-15T08:33:34.798Z,99.90
2018-12-15T08:36:11.491Z,99.90
2018-12-15T08:38:44.586Z,99.90
2018-12-15T08:41:18.111Z,99.90
2018-12-15T08:43:55.174Z,99.90
2018-12-15T08:46:32.630Z,99.90
2018-12-15T08:49:05.530Z,99.90
2018-12-15T08:51:38.370Z,99.90
2018-12-15T08:54:12.552Z,99.90
2018-12-15T08:56:47.335Z,99.90
2018-12-15T08:59:20.387Z,99.90
2018-12-15T09:01:57.303Z,99.90
2018-12-15T09:04:30.410Z,99.90
2018-12-15T09:07:03.556Z,99.90
2018-12-15T09:09:36.822Z,99.90
2018-12-15T09:12:09.984Z,99.90
2018-12-15T09:14:43.063Z,99.90
2018-12-15T09:17:16.428Z,99.90
2018-12-15T09:19:49.658Z,99.90
2018-12-15T09:22:22.852Z,99.90
2018-12-15T09:24:55.768Z,99.90
2018-12-15T09:27:28.681Z,99.90
2018-12-15T09:30:01.681Z,99.90
2018-12-15T09:32:34.725Z,99.90
2018-12-15T09:35:11.799Z,99.90
2018-12-15T09:37:44.842Z,99.90
2018-12-15T09:40:18.047Z,99.90
2018-12-15T09:42:51.227Z,99.90
2018-12-15T09:45:24.518Z,99.90
2018-12-15T09:48:01.730Z,99.90
2018-12-15T09:50:34.542Z,99.90
2018-12-15T09:53:11.694Z,99.90
2018-12-15T09:55:45.014Z,99.90
2018-12-15T09:58:21.984Z,99.90
2018-12-15T10:00:55.145Z,99.90
2018-12-15T10:03:28.103Z,99.90
2018-12-15T10:06:01.423Z,99.90
2018-12-15T10:08:34.726Z,99.90
2018-12-15T10:11:07.903Z,99.90
2018-12-15T10:13:45.012Z,99.90
2018-12-15T10:16:18.076Z,99.90
2018-12-15T10:18:55.415Z,99.90
2018-12-15T10:21:32.195Z,99.90
2018-12-15T10:24:05.502Z,99.90
2018-12-15T10:26:38.667Z,99.90
2018-12-15T10:29:16.493Z,99.90
2018-12-15T10:31:58.281Z,99.90
2018-12-15T10:34:35.254Z,99.90
2018-12-15T10:37:12.420Z,99.90
2018-12-15T10:39:45.515Z,99.90
2018-12-15T10:42:18.551Z,99.90
2018-12-15T10:44:56.011Z,99.90
2018-12-15T10:47:33.312Z,99.90
2018-12-15T10:50:11.684Z,99.90
2018-12-15T10:52:48.330Z,99.90
2018-12-15T10:55:21.699Z,99.90
2018-12-15T10:57:55.252Z,99.90
2018-12-15T11:00:34.090Z,99.90
2018-12-15T11:03:07.327Z,99.90
2018-12-15T11:05:44.378Z,99.90
2018-12-15T11:08:21.613Z,99.90
2018-12-15T11:10:54.450Z,99.90
2018-12-15T11:13:31.536Z,99.90
2018-12-15T11:16:05.013Z,99.90
2018-12-15T11:18:41.937Z,99.90
2018-12-15T11:21:19.026Z,99.90
2018-12-15T11:23:52.129Z,99.90
2018-12-15T11:26:25.504Z,99.90
2018-12-15T11:29:02.593Z,99.90
2018-12-15T11:31:39.907Z,99.90
2018-12-15T11:34:13.102Z,99.90
2018-12-15T11:36:45.695Z,99.90
2018-12-15T11:39:19.045Z,99.90
2018-12-15T11:41:56.184Z,99.90
2018-12-15T11:44:33.914Z,99.90
2018-12-15T11:47:07.509Z,99.90
2018-12-15T11:49:44.404Z,99.90
2018-12-15T11:52:17.400Z,99.90
2018-12-15T11:54:50.224Z,99.90
2018-12-15T11:57:23.524Z,99.90
2018-12-15T11:59:55.795Z,99.90
2018-12-15T12:02:31.826Z,99.90
2018-12-15T12:05:03.979Z,98.90
2018-12-15T12:07:40.789Z,99.90
2018-12-15T12:10:13.576Z,95.70
2018-12-15T12:12:46.446Z,96.50
2018-12-15T12:15:19.490Z,95.80
2018-12-15T12:17:52.554Z,98.20
2018-12-15T12:20:25.323Z,95.50
2018-12-15T12:22:58.618Z,96.20
2018-12-15T12:25:31.500Z,98.90
2018-12-15T12:28:04.650Z,99.90
2018-12-15T12:30:41.849Z,99.80
2018-12-15T12:33:14.862Z,99.90
2018-12-15T12:35:47.994Z,99.90
2018-12-15T12:38:21.284Z,99.90
2018-12-15T12:40:54.431Z,99.90
2018-12-15T12:43:27.514Z,99.90
2018-12-15T12:46:00.679Z,99.90
2018-12-15T12:48:33.968Z,99.90
2018-12-15T12:51:07.451Z,99.90
2018-12-15T12:53:40.471Z,99.90
2018-12-15T12:56:14.128Z,99.90
2018-12-15T12:58:47.159Z,99.90
2018-12-15T13:01:20.359Z,99.90
2018-12-15T13:03:53.541Z,99.90
2018-12-15T13:06:29.829Z,99.90
2018-12-15T13:09:02.968Z,99.90
2018-12-15T13:11:40.238Z,99.90
2018-12-15T13:14:17.387Z,99.90
2018-12-15T13:16:50.574Z,99.90
2018-12-15T13:19:23.761Z,99.90
2018-12-15T13:21:56.763Z,99.90
2018-12-15T13:24:29.846Z,99.90
2018-12-15T13:27:02.946Z,99.90
2018-12-15T13:29:36.128Z,99.90
2018-12-15T13:32:09.121Z,99.90
2018-12-15T13:34:42.459Z,99.90
2018-12-15T13:37:15.796Z,99.90
2018-12-15T13:39:48.126Z,99.90
2018-12-15T13:42:20.605Z,99.90
2018-12-15T13:44:57.649Z,99.90
2018-12-15T13:47:34.957Z,99.90
2018-12-15T13:50:12.319Z,99.90
2018-12-15T13:52:45.594Z,99.90
2018-12-15T13:55:18.723Z,99.90
2018-12-15T13:57:51.778Z,99.90
2018-12-15T14:00:24.855Z,99.90
2018-12-15T14:02:58.050Z,99.90
2018-12-15T14:05:30.591Z,99.90
2018-12-15T14:08:03.435Z,99.90
2018-12-15T14:10:40.537Z,99.90
2018-12-15T14:13:16.898Z,99.90
2018-12-15T14:15:53.453Z,99.90
2018-12-15T14:18:26.852Z,99.90
2018-12-15T14:21:03.786Z,99.90
2018-12-15T14:23:36.921Z,99.90
2018-12-15T14:26:14.130Z,99.90
2018-12-15T14:28:48.446Z,99.90
2018-12-15T14:31:25.610Z,99.90
2018-12-15T14:34:02.770Z,99.90
2018-12-15T14:36:35.881Z,99.90
2018-12-15T14:39:09.059Z,99.90
2018-12-15T14:41:42.154Z,99.90
2018-12-15T14:44:15.250Z,99.90
2018-12-15T14:46:47.698Z,99.90
2018-12-15T14:49:20.986Z,99.90
2018-12-15T14:51:57.378Z,99.90
2018-12-15T14:54:30.346Z,99.90
2018-12-15T14:57:02.760Z,99.90
2018-12-15T14:59:39.911Z,99.90
2018-12-15T15:02:13.084Z,99.90
2018-12-15T15:04:46.166Z,99.90
2018-12-15T15:07:22.586Z,99.90
2018-12-15T15:09:54.966Z,99.90
2018-12-15T15:12:28.218Z,99.90
2018-12-15T15:15:01.435Z,99.90
2018-12-15T15:17:35.442Z,99.90
2018-12-15T15:20:10.214Z,99.90
2018-12-15T15:22:46.584Z,99.90
2018-12-15T15:25:23.150Z,99.90
2018-12-15T15:27:56.295Z,99.90
2018-12-15T15:30:29.251Z,99.90
2018-12-15T15:33:02.373Z,99.90
2018-12-15T15:35:35.524Z,99.90
2018-12-15T15:38:08.867Z,99.90
2018-12-15T15:40:41.718Z,99.90
2018-12-15T15:43:14.098Z,99.90
2018-12-15T15:45:46.386Z,99.90
2018-12-15T15:48:18.807Z,99.90
2018-12-15T15:50:51.166Z,99.90
2018-12-15T15:53:24.020Z,99.90
2018-12-15T15:56:01.278Z,99.90
2018-12-15T15:58:34.570Z,99.90
2018-12-15T16:01:07.322Z,99.90
2018-12-15T16:03:44.472Z,99.90
2018-12-15T16:06:17.546Z,99.90
2018-12-15T16:08:50.925Z,99.90
2018-12-15T16:11:24.216Z,99.90
2018-12-15T16:13:57.695Z,99.90
2018-12-15T16:16:34.364Z,99.90
2018-12-15T16:19:11.461Z,99.90
2018-12-15T16:21:44.140Z,99.90
2018-12-15T16:24:21.582Z,99.90
2018-12-15T16:26:54.651Z,99.90
2018-12-15T16:29:28.045Z,99.90
2018-12-15T16:32:01.566Z,99.90
2018-12-15T16:34:34.402Z,99.90
2018-12-15T16:37:07.783Z,99.90
2018-12-15T16:39:45.009Z,99.90
2018-12-15T16:42:18.245Z,99.90
2018-12-15T16:44:55.462Z,99.90
2018-12-15T16:47:28.982Z,99.90
2018-12-15T16:50:01.919Z,99.90
2018-12-15T16:52:35.245Z,99.90
2018-12-15T16:55:08.488Z,99.90
2018-12-15T16:57:45.984Z,99.90
2018-12-15T17:00:19.360Z,99.90
2018-12-15T17:02:56.381Z,99.90
2018-12-15T17:05:29.880Z,99.90
2018-12-15T17:08:02.651Z,99.90
2018-12-15T17:10:35.892Z,99.90
2018-12-15T17:13:08.828Z,99.90
2018-12-15T17:15:46.170Z,99.90
2018-12-15T17:18:19.198Z,99.90
2018-12-15T17:20:56.870Z,99.90
2018-12-15T17:23:29.805Z,99.90
2018-12-15T17:26:02.912Z,99.90
2018-12-15T17:28:35.895Z,99.90
2018-12-15T17:31:09.547Z,99.90
2018-12-15T17:33:46.107Z,99.90
2018-12-15T17:36:23.084Z,99.90
2018-12-15T17:38:57.083Z,99.90
2018-12-15T17:41:30.190Z,99.90
2018-12-15T17:44:07.231Z,99.90
2018-12-15T17:46:40.385Z,99.90
2018-12-15T17:49:17.637Z,99.90
2018-12-15T17:51:51.109Z,99.90
2018-12-15T17:54:24.354Z,99.90
2018-12-15T17:57:01.336Z,99.90
2018-12-15T17:59:38.673Z,99.90
2018-12-15T18:02:11.794Z,99.90
2018-12-15T18:04:45.182Z,99.90
2018-12-15T18:07:19.170Z,99.90
2018-12-15T18:09:52.477Z,99.90
2018-12-15T18:12:25.414Z,99.90
2018-12-15T18:15:02.590Z,99.90
2018-12-15T18:17:39.920Z,99.90
2018-12-15T18:20:13.026Z,99.90
2018-12-15T18:22:46.163Z,99.90
2018-12-15T18:25:23.082Z,99.90
2018-12-15T18:27:56.139Z,99.90
2018-12-15T18:30:29.516Z,99.90
2018-12-15T18:33:06.714Z,99.90
2018-12-15T18:35:39.670Z,99.90
2018-12-15T18:38:12.664Z,99.90
2018-12-15T18:40:46.068Z,99.90
2018-12-15T18:43:19.198Z,99.90
2018-12-15T18:45:56.412Z,99.90
2018-12-15T18:48:30.056Z,99.90
2018-12-15T18:51:03.369Z,99.90
2018-12-15T18:53:36.050Z,99.90
2018-12-15T18:56:09.468Z,99.90
2018-12-15T18:58:42.466Z,99.90
2018-12-15T19:01:15.833Z,99.90
2018-12-15T19:03:53.038Z,99.90
2018-12-15T19:06:30.226Z,99.90
2018-12-15T19:09:06.359Z,99.90
2018-12-15T19:11:39.482Z,99.90
2018-12-15T19:14:12.700Z,99.90
2018-12-15T19:16:45.806Z,99.90
2018-12-15T19:19:18.166Z,99.90
2018-12-15T19:21:51.238Z,99.90
2018-12-15T19:24:23.517Z,99.90
2018-12-15T19:26:55.974Z,99.90
2018-12-15T19:29:29.111Z,99.90
2018-12-15T19:32:05.426Z,99.90
2018-12-15T19:34:38.617Z,99.90
2018-12-15T19:37:11.579Z,99.90
2018-12-15T19:39:48.718Z,99.90
2018-12-15T19:42:25.040Z,99.90
2018-12-15T19:44:58.283Z,99.90
2018-12-15T19:47:31.630Z,99.90
2018-12-15T19:50:04.960Z,99.90
2018-12-15T19:52:37.749Z,99.90
2018-12-15T19:55:10.851Z,99.90
2018-12-15T19:57:44.022Z,99.90
2018-12-15T20:00:17.194Z,99.90
2018-12-15T20:02:50.414Z,99.90
2018-12-15T20:05:23.673Z,99.90
2018-12-15T20:07:56.898Z,99.90
2018-12-15T20:10:34.006Z,99.90
2018-12-15T20:13:10.257Z,99.90
2018-12-15T20:15:47.336Z,99.90
2018-12-15T20:18:20.590Z,99.90
2018-12-15T20:20:53.541Z,99.90
2018-12-15T20:23:25.950Z,99.90
2018-12-15T20:25:59.027Z,99.90
2018-12-15T20:28:32.315Z,99.90
2018-12-15T20:31:08.720Z,99.90
2018-12-15T20:33:41.807Z,99.90
2018-12-15T20:36:15.027Z,99.90
2018-12-15T20:38:52.008Z,99.90
2018-12-15T20:41:28.867Z,99.90
2018-12-15T20:44:05.237Z,99.90
2018-12-15T20:46:38.402Z,99.90
2018-12-15T20:49:11.615Z,99.90
2018-12-15T20:51:48.752Z,99.90
2018-12-15T20:54:25.718Z,99.90
2018-12-15T20:56:58.899Z,99.90
2018-12-15T20:59:31.758Z,99.90
2018-12-15T21:02:04.987Z,99.90
2018-12-15T21:04:37.938Z,99.90
2018-12-15T21:07:14.291Z,99.90
2018-12-15T21:09:47.296Z,99.90
2018-12-15T21:12:23.554Z,99.90
2018-12-15T21:14:59.410Z,99.90
2018-12-15T21:17:36.374Z,99.90
2018-12-15T21:20:10.490Z,99.90
2018-12-15T21:22:47.346Z,99.90
2018-12-15T21:25:19.738Z,99.90
2018-12-15T21:27:53.016Z,99.90
2018-12-15T21:30:26.394Z,99.90
2018-12-15T21:32:59.485Z,99.90
2018-12-15T21:35:36.673Z,99.90
2018-12-15T21:38:09.406Z,99.90
2018-12-15T21:40:46.891Z,99.90
2018-12-15T21:43:19.756Z,99.90
2018-12-15T21:45:52.845Z,99.90
2018-12-15T21:48:26.311Z,99.90
2018-12-15T21:51:03.395Z,99.90
2018-12-15T21:53:36.758Z,99.90
2018-12-15T21:56:13.184Z,99.90
2018-12-15T21:58:46.527Z,99.90
2018-12-15T22:01:23.518Z,99.90
2018-12-15T22:03:57.557Z,99.90
2018-12-15T22:06:30.842Z,99.90
2018-12-15T22:09:08.495Z,99.90
2018-12-15T22:11:44.887Z,99.90
2018-12-15T22:14:17.899Z,99.90
2018-12-15T22:16:51.026Z,99.90
2018-12-15T22:19:24.126Z,99.90
2018-12-15T22:22:02.799Z,99.90
2018-12-15T22:24:32.051Z,99.90
2018-12-15T22:27:09.142Z,99.90
2018-12-15T22:29:41.935Z,99.90
2018-12-15T22:32:14.950Z,99.90
2018-12-15T22:34:47.215Z,99.90
2018-12-15T22:37:20.528Z,99.90
2018-12-15T22:39:53.401Z,99.90
2018-12-15T22:42:25.664Z,99.90
2018-12-15T22:44:58.765Z,99.90
2018-12-15T22:47:31.884Z,99.90
2018-12-15T22:50:09.644Z,99.90
2018-12-15T22:52:42.403Z,99.90
2018-12-15T22:55:15.410Z,99.90
2018-12-15T22:57:48.347Z,99.90
2018-12-15T23:00:21.338Z,99.90
2018-12-15T23:02:54.383Z,99.90
2018-12-15T23:05:27.413Z,99.90
2018-12-15T23:08:03.926Z,99.90
2018-12-15T23:10:40.351Z,99.90
2018-12-15T23:13:16.595Z,99.90
2018-12-15T23:15:52.862Z,99.90
2018-12-15T23:18:29.975Z,99.90
2018-12-15T23:21:06.174Z,99.90
2018-12-15T23:23:39.170Z,99.90
2018-12-15T23:26:12.279Z,99.90
2018-12-15T23:28:45.183Z,99.90
2018-12-15T23:31:18.172Z,99.90
2018-12-15T23:33:51.137Z,99.90
2018-12-15T23:36:24.358Z,99.90
2018-12-15T23:39:01.905Z,99.90
2018-12-15T23:41:34.662Z,99.90
2018-12-15T23:44:11.797Z,99.90
2018-12-15T23:46:48.938Z,99.90
2018-12-15T23:49:22.286Z,99.90
2018-12-15T23:51:59.113Z,99.90
2018-12-15T23:54:32.405Z,99.90
2018-12-15T23:57:05.471Z,99.90
2018-12-15T23:59:38.620Z,99.90
